createdAt,value
2018-09-27T00:01:45.355Z,99716.41
2018-09-27T00:04:15.009Z,99717.77
2018-09-27T00:06:44.691Z,99715.75
2018-09-27T00:09:14.331Z,99716.53
2018-09-27T00:11:43.990Z,99710.95
2018-09-27T00:14:13.655Z,99715.03
2018-09-27T00:16:43.290Z,99715.64
2018-09-27T00:19:12.948Z,99710.95
2018-09-27T00:21:42.894Z,99708.81
2018-09-27T00:24:12.507Z,99710.60
2018-09-27T00:26:42.155Z,99716.45
2018-09-27T00:29:11.801Z,99711.23
2018-09-27T00:31:41.435Z,99711.47
2018-09-27T00:34:11.111Z,99711.59
2018-09-27T00:36:40.737Z,99713.88
2018-09-27T00:39:12.636Z,99698.80
2018-09-27T00:41:42.372Z,99692.92
2018-09-27T00:44:12.189Z,99698.19
2018-09-27T00:46:41.844Z,99698.24
2018-09-27T00:49:11.519Z,99694.69
2018-09-27T00:51:41.035Z,99693.50
2018-09-27T00:54:10.552Z,99690.90
2018-09-27T00:56:40.052Z,99689.83
2018-09-27T00:59:09.539Z,99689.06
2018-09-27T01:01:39.015Z,99686.92
2018-09-27T01:04:09.275Z,99684.49
2018-09-27T01:06:38.767Z,99684.49
2018-09-27T01:09:10.512Z,99687.87
2018-09-27T01:11:40.219Z,99689.28
2018-09-27T01:14:09.795Z,99686.91
2018-09-27T01:16:39.299Z,99678.89
2018-09-27T01:19:08.807Z,99690.60
2018-09-27T01:21:38.385Z,99693.78
2018-09-27T01:24:07.851Z,99689.93
2018-09-27T01:26:37.351Z,99695.08
2018-09-27T01:29:07.757Z,99691.66
2018-09-27T01:31:37.253Z,99696.48
2018-09-27T01:34:07.131Z,99685.05
2018-09-27T01:36:36.674Z,99683.97
2018-09-27T01:39:08.655Z,99683.27
2018-09-27T01:41:38.155Z,99676.28
2018-09-27T01:44:07.740Z,99676.39
2018-09-27T01:46:37.343Z,99683.48
2018-09-27T01:49:06.935Z,99682.17
2018-09-27T01:51:36.554Z,99685.30
2018-09-27T01:54:06.077Z,99675.30
2018-09-27T01:56:35.669Z,99673.37
2018-09-27T01:59:05.307Z,99673.91
2018-09-27T02:01:34.907Z,99672.23
2018-09-27T02:04:04.425Z,99670.98
2018-09-27T02:06:33.923Z,99664.48
2018-09-27T02:09:04.029Z,99656.80
2018-09-27T02:11:33.512Z,99659.93
2018-09-27T02:14:03.368Z,99660.85
2018-09-27T02:16:32.879Z,99651.30
2018-09-27T02:19:02.392Z,99651.34
2018-09-27T02:21:31.939Z,99649.21
2018-09-27T02:24:01.443Z,99645.79
2018-09-27T02:26:30.939Z,99646.20
2018-09-27T02:29:00.432Z,99645.26
2018-09-27T02:31:29.926Z,99641.95
2018-09-27T02:33:59.430Z,99638.97
2018-09-27T02:36:28.968Z,99632.53
2018-09-27T02:38:58.451Z,99633.52
2018-09-27T02:41:27.952Z,99627.91
2018-09-27T02:43:57.447Z,99630.25
2018-09-27T02:46:26.919Z,99627.75
2018-09-27T02:48:56.444Z,99620.22
2018-09-27T02:51:26.247Z,99626.78
2018-09-27T02:53:55.751Z,99619.09
2018-09-27T02:56:25.259Z,99617.38
2018-09-27T02:58:54.768Z,99606.89
2018-09-27T03:01:24.262Z,99609.54
2018-09-27T03:03:53.855Z,99603.20
2018-09-27T03:06:23.373Z,99603.66
2018-09-27T03:08:52.921Z,99595.56
2018-09-27T03:11:22.388Z,99596.02
2018-09-27T03:13:51.911Z,99596.44
2018-09-27T03:16:21.584Z,99596.59
2018-09-27T03:18:51.467Z,99600.02
2018-09-27T03:21:21.332Z,99597.16
2018-09-27T03:23:50.944Z,99598.98
2018-09-27T03:26:20.668Z,99586.31
2018-09-27T03:28:50.324Z,99594.57
2018-09-27T03:31:19.979Z,99589.83
2018-09-27T03:33:49.534Z,99597.68
2018-09-27T03:36:19.038Z,99597.22
2018-09-27T03:38:48.515Z,99597.27
2018-09-27T03:41:18.578Z,99597.32
2018-09-27T03:43:48.048Z,99597.89
2018-09-27T03:46:17.555Z,99597.02
2018-09-27T03:48:47.065Z,99596.74
2018-09-27T03:51:16.695Z,99593.33
2018-09-27T03:53:46.208Z,99587.30
2018-09-27T03:56:15.718Z,99583.45
2018-09-27T03:58:45.227Z,99584.39
2018-09-27T04:01:14.720Z,99582.66
2018-09-27T04:03:44.229Z,99586.61
2018-09-27T04:06:13.764Z,99582.92
2018-09-27T04:08:43.272Z,99573.94
2018-09-27T04:11:12.784Z,99574.62
2018-09-27T04:13:42.259Z,99574.52
2018-09-27T04:16:11.752Z,99566.67
2018-09-27T04:18:41.271Z,99560.64
2018-09-27T04:21:10.786Z,99557.58
2018-09-27T04:23:40.445Z,99564.86
2018-09-27T04:26:09.952Z,99560.64
2018-09-27T04:28:39.441Z,99556.95
2018-09-27T04:31:08.935Z,99555.50
2018-09-27T04:33:38.470Z,99550.52
2018-09-27T04:36:08.172Z,99554.08
2018-09-27T04:38:37.968Z,99551.96
2018-09-27T04:41:07.508Z,99541.98
2018-09-27T04:43:37.171Z,99549.11
2018-09-27T04:46:06.761Z,99554.72
2018-09-27T04:48:36.271Z,99557.88
2018-09-27T04:51:05.799Z,99564.00
2018-09-27T04:53:35.308Z,99559.47
2018-09-27T04:56:04.912Z,99561.45
2018-09-27T04:58:34.676Z,99556.02
2018-09-27T05:01:04.315Z,99554.62
2018-09-27T05:03:34.865Z,99559.31
2018-09-27T05:06:04.812Z,99556.20
2018-09-27T05:08:34.316Z,99557.86
2018-09-27T05:11:03.819Z,99551.78
2018-09-27T05:13:33.628Z,99560.81
2018-09-27T05:16:03.199Z,99559.95
2018-09-27T05:18:33.122Z,99558.23
2018-09-27T05:21:02.640Z,99557.77
2018-09-27T05:23:32.182Z,99560.45
2018-09-27T05:26:01.767Z,99561.97
2018-09-27T05:28:31.299Z,99565.41
2018-09-27T05:31:00.783Z,99571.84
2018-09-27T05:33:30.307Z,99579.31
2018-09-27T05:35:59.985Z,99577.97
2018-09-27T05:38:29.465Z,99568.73
2018-09-27T05:40:58.965Z,99561.56
2018-09-27T05:43:28.963Z,99564.59
2018-09-27T05:45:58.748Z,99559.25
2018-09-27T05:48:28.211Z,99560.52
2018-09-27T05:50:58.088Z,99551.77
2018-09-27T05:53:27.573Z,99552.00
2018-09-27T05:55:57.116Z,99557.25
2018-09-27T05:58:26.776Z,99563.06
2018-09-27T06:00:56.293Z,99564.56
2018-09-27T06:03:25.786Z,99570.19
2018-09-27T06:05:55.520Z,99558.52
2018-09-27T06:08:24.991Z,99559.48
2018-09-27T06:10:54.487Z,99567.56
2018-09-27T06:13:23.980Z,99569.94
2018-09-27T06:15:53.506Z,99566.05
2018-09-27T06:18:23.280Z,99563.56
2018-09-27T06:20:53.349Z,99559.26
2018-09-27T06:23:22.881Z,99557.51
2018-09-27T06:25:52.378Z,99562.91
2018-09-27T06:28:21.863Z,99560.30
2018-09-27T06:30:51.373Z,99564.81
2018-09-27T06:33:20.858Z,99560.00
2018-09-27T06:35:50.520Z,99563.20
2018-09-27T06:38:20.623Z,99566.96
2018-09-27T06:40:50.288Z,99556.02
2018-09-27T06:43:19.780Z,99557.48
2018-09-27T06:45:49.494Z,99561.47
2018-09-27T06:48:19.029Z,99562.08
2018-09-27T06:50:48.732Z,99565.25
2018-09-27T06:53:18.223Z,99564.20
2018-09-27T06:55:47.975Z,99563.45
2018-09-27T06:58:17.616Z,99561.33
2018-09-27T07:00:47.197Z,99567.41
2018-09-27T07:03:17.537Z,99564.95
2018-09-27T07:05:47.070Z,99569.60
2018-09-27T07:08:16.747Z,99565.44
2018-09-27T07:10:46.255Z,99568.60
2018-09-27T07:13:15.780Z,99567.72
2018-09-27T07:15:45.265Z,99565.61
2018-09-27T07:18:14.755Z,99563.91
2018-09-27T07:20:44.323Z,99562.73
2018-09-27T07:23:14.099Z,99562.73
2018-09-27T07:25:43.653Z,99558.04
2018-09-27T07:28:13.369Z,99557.65
2018-09-27T07:30:42.848Z,99561.02
2018-09-27T07:33:12.524Z,99549.73
2018-09-27T07:35:42.049Z,99551.08
2018-09-27T07:38:11.585Z,99548.78
2018-09-27T07:40:41.456Z,99547.38
2018-09-27T07:43:10.957Z,99551.38
2018-09-27T07:45:40.476Z,99545.75
2018-09-27T07:48:10.170Z,99543.12
2018-09-27T07:50:39.774Z,99542.98
2018-09-27T07:53:09.459Z,99545.33
2018-09-27T07:55:39.212Z,99540.87
2018-09-27T07:58:08.771Z,99541.08
2018-09-27T08:00:38.536Z,99538.02
2018-09-27T08:03:08.131Z,99534.91
2018-09-27T08:05:38.201Z,99540.87
2018-09-27T08:08:08.080Z,99542.23
2018-09-27T08:10:37.619Z,99536.08
2018-09-27T08:13:07.511Z,99534.30
2018-09-27T08:15:37.107Z,99535.35
2018-09-27T08:18:06.801Z,99533.78
2018-09-27T08:20:36.401Z,99530.27
2018-09-27T08:23:06.262Z,99529.63
2018-09-27T08:25:35.731Z,99525.94
2018-09-27T08:28:05.237Z,99528.59
2018-09-27T08:30:34.771Z,99528.26
2018-09-27T08:33:04.479Z,99531.39
2018-09-27T08:35:34.004Z,99529.36
2018-09-27T08:38:03.553Z,99532.00
2018-09-27T08:40:33.043Z,99528.17
2018-09-27T08:43:02.572Z,99521.78
2018-09-27T08:45:32.268Z,99518.23
2018-09-27T08:48:01.933Z,99516.74
2018-09-27T08:50:31.488Z,99504.20
2018-09-27T08:53:01.084Z,99506.42
2018-09-27T08:55:30.672Z,99507.38
2018-09-27T08:58:00.460Z,99505.61
2018-09-27T09:00:30.008Z,99507.05
2018-09-27T09:02:59.571Z,99504.42
2018-09-27T09:05:29.127Z,99503.77
2018-09-27T09:07:58.705Z,99499.30
2018-09-27T09:10:28.519Z,99502.22
2018-09-27T09:12:58.113Z,99501.38
2018-09-27T09:15:27.740Z,99493.51
2018-09-27T09:17:58.472Z,99485.55
2018-09-27T09:20:28.267Z,99482.70
2018-09-27T09:22:57.828Z,99475.11
2018-09-27T09:25:27.368Z,99472.14
2018-09-27T09:27:57.138Z,99468.99
2018-09-27T09:30:26.663Z,99469.94
2018-09-27T09:32:56.257Z,99461.23
2018-09-27T09:35:25.874Z,99461.44
2018-09-27T09:37:55.635Z,99463.44
2018-09-27T09:40:25.240Z,99456.44
2018-09-27T09:42:54.836Z,99454.55
2018-09-27T09:45:24.870Z,99456.58
2018-09-27T09:47:54.476Z,99452.52
2018-09-27T09:50:24.117Z,99447.67
2018-09-27T09:52:53.920Z,99445.56
2018-09-27T09:55:23.587Z,99442.69
2018-09-27T09:57:53.155Z,99446.67
2018-09-27T10:00:22.811Z,99440.06
2018-09-27T10:02:52.584Z,99439.73
2018-09-27T10:05:22.164Z,99434.30
2018-09-27T10:07:52.023Z,99428.41
2018-09-27T10:10:21.555Z,99419.70
2018-09-27T10:12:51.145Z,99409.36
2018-09-27T10:15:20.692Z,99413.73
2018-09-27T10:17:50.282Z,99406.61
2018-09-27T10:20:19.863Z,99409.72
2018-09-27T10:22:49.444Z,99407.50
2018-09-27T10:25:19.008Z,99403.50
2018-09-27T10:27:48.751Z,99400.95
2018-09-27T10:30:18.363Z,99400.51
2018-09-27T10:32:48.033Z,99391.19
2018-09-27T10:35:17.589Z,99384.09
2018-09-27T10:37:47.132Z,99387.86
2018-09-27T10:40:16.736Z,99385.11
2018-09-27T10:42:46.335Z,99374.28
2018-09-27T10:45:15.919Z,99372.50
2018-09-27T10:47:45.480Z,99377.43
2018-09-27T10:50:15.044Z,99373.44
2018-09-27T10:52:44.588Z,99367.67
2018-09-27T10:55:14.221Z,99366.62
2018-09-27T10:57:43.788Z,99364.00
2018-09-27T11:00:18.251Z,99361.59
2018-09-27T11:02:48.417Z,99357.75
2018-09-27T11:05:18.010Z,99357.45
2018-09-27T11:07:47.607Z,99351.36
2018-09-27T11:10:17.169Z,99353.55
2018-09-27T11:12:47.395Z,99347.72
2018-09-27T11:15:17.268Z,99343.61
2018-09-27T11:17:46.875Z,99340.45
2018-09-27T11:20:16.391Z,99335.52
2018-09-27T11:22:46.034Z,99324.88
2018-09-27T11:25:15.587Z,99328.67
2018-09-27T11:27:45.201Z,99320.17
2018-09-27T11:30:20.067Z,99314.02
2018-09-27T11:32:49.633Z,99307.40
2018-09-27T11:35:19.408Z,99307.24
2018-09-27T11:37:49.033Z,99298.59
2018-09-27T11:40:18.648Z,99294.44
2018-09-27T11:42:48.652Z,99291.81
2018-09-27T11:45:18.353Z,99285.82
2018-09-27T11:47:47.979Z,99284.69
2018-09-27T11:50:17.656Z,99279.59
2018-09-27T11:52:47.412Z,99271.78
2018-09-27T11:55:17.017Z,99281.62
2018-09-27T11:57:46.625Z,99272.80
2018-09-27T12:00:20.127Z,99263.98
2018-09-27T12:02:52.475Z,99257.16
2018-09-27T12:05:22.421Z,99256.66
2018-09-27T12:07:52.002Z,99253.32
2018-09-27T12:10:21.588Z,99243.17
2018-09-27T12:12:51.719Z,99242.85
2018-09-27T12:15:21.306Z,99233.02
2018-09-27T12:17:50.904Z,99231.52
2018-09-27T12:20:22.806Z,99227.17
2018-09-27T12:22:52.501Z,99220.67
2018-09-27T12:25:22.273Z,99217.84
2018-09-27T12:27:51.876Z,99216.35
2018-09-27T12:30:23.080Z,99207.84
2018-09-27T12:32:52.632Z,99204.52
2018-09-27T12:35:22.667Z,99200.84
2018-09-27T12:37:52.219Z,99194.84
2018-09-27T12:40:21.997Z,99197.34
2018-09-27T12:42:51.648Z,99192.02
2018-09-27T12:45:21.425Z,99176.72
2018-09-27T12:47:51.198Z,99176.37
2018-09-27T12:50:20.996Z,99165.52
2018-09-27T12:52:50.615Z,99167.39
2018-09-27T12:55:20.376Z,99155.20
2018-09-27T12:57:49.928Z,99154.22
2018-09-27T13:00:19.600Z,99158.91
2018-09-27T13:02:49.320Z,99150.09
2018-09-27T13:05:18.991Z,99153.95
2018-09-27T13:07:48.614Z,99148.46
2018-09-27T13:10:18.489Z,99137.80
2018-09-27T13:12:48.290Z,99135.29
2018-09-27T13:15:18.236Z,99131.45
2018-09-27T13:17:47.798Z,99126.95
2018-09-27T13:20:17.662Z,99125.27
2018-09-27T13:22:47.391Z,99121.11
2018-09-27T13:25:16.980Z,99117.30
2018-09-27T13:27:46.780Z,99112.44
2018-09-27T13:30:16.388Z,99104.95
2018-09-27T13:35:27.248Z,99092.46
2018-09-27T13:37:56.813Z,99084.64
2018-09-27T13:40:27.255Z,99079.95
2018-09-27T13:42:56.836Z,99076.80
2018-09-27T13:45:26.615Z,99074.98
2018-09-27T13:47:56.248Z,99071.98
2018-09-27T13:50:25.823Z,99064.97
2018-09-27T13:52:55.471Z,99065.63
2018-09-27T13:55:25.025Z,99063.14
2018-09-27T13:57:54.591Z,99058.80
2018-09-27T14:00:24.581Z,99059.12
2018-09-27T14:02:54.236Z,99053.63
2018-09-27T14:05:23.992Z,99048.46
2018-09-27T14:07:53.723Z,99042.66
2018-09-27T14:10:23.300Z,99048.64
2018-09-27T14:12:52.876Z,99041.30
2018-09-27T14:15:22.642Z,99041.63
2018-09-27T14:17:52.604Z,99035.30
2018-09-27T14:20:22.500Z,99029.78
2018-09-27T14:22:52.469Z,99021.64
2018-09-27T14:25:22.041Z,99021.30
2018-09-27T14:27:51.623Z,99026.63
2018-09-27T14:30:21.315Z,99018.63
2018-09-27T14:32:51.109Z,99017.80
2018-09-27T14:35:20.936Z,99015.45
2018-09-27T14:37:50.784Z,99011.63
2018-09-27T14:40:20.388Z,99007.11
2018-09-27T14:42:49.945Z,99003.29
2018-09-27T14:45:19.496Z,98997.79
2018-09-27T14:47:49.170Z,99000.45
2018-09-27T14:50:19.015Z,98993.30
2018-09-27T14:52:48.681Z,98990.45
2018-09-27T14:55:18.255Z,98990.11
2018-09-27T14:57:47.824Z,98982.11
2018-09-27T15:00:17.704Z,98983.30
2018-09-27T15:02:47.307Z,98984.12
2018-09-27T15:05:16.900Z,98980.95
2018-09-27T15:07:46.490Z,98971.47
2018-09-27T15:10:16.619Z,98975.13
2018-09-27T15:12:46.447Z,98966.63
2018-09-27T15:15:16.184Z,98969.63
2018-09-27T15:17:45.781Z,98965.97
2018-09-27T15:20:15.566Z,98963.30
2018-09-27T15:22:45.260Z,98958.64
2018-09-27T15:25:15.286Z,98955.97
2018-09-27T15:27:44.864Z,98952.30
2018-09-27T15:30:14.839Z,98945.80
2018-09-27T15:32:44.417Z,98939.98
2018-09-27T15:35:13.992Z,98938.47
2018-09-27T15:37:43.547Z,98937.12
2018-09-27T15:40:13.158Z,98934.79
2018-09-27T15:42:42.748Z,98939.12
2018-09-27T15:45:12.298Z,98936.66
2018-09-27T15:47:41.888Z,98925.98
2018-09-27T15:50:11.502Z,98929.48
2018-09-27T15:52:41.094Z,98917.98
2018-09-27T15:55:10.650Z,98916.61
2018-09-27T15:57:40.304Z,98914.09
2018-09-27T16:00:10.269Z,98911.75
2018-09-27T16:02:39.839Z,98908.41
2018-09-27T16:05:09.466Z,98902.76
2018-09-27T16:07:39.076Z,98900.11
2018-09-27T16:10:08.695Z,98896.61
2018-09-27T16:12:38.277Z,98886.92
2018-09-27T16:15:08.345Z,98887.41
2018-09-27T16:17:38.204Z,98884.92
2018-09-27T16:20:08.878Z,98884.23
2018-09-27T16:22:38.447Z,98876.89
2018-09-27T16:25:08.043Z,98875.73
2018-09-27T16:27:37.604Z,98871.56
2018-09-27T16:30:08.080Z,98868.56
2018-09-27T16:32:37.648Z,98867.50
2018-09-27T16:35:08.416Z,98869.48
2018-09-27T16:37:37.984Z,98867.15
2018-09-27T16:40:07.698Z,98867.15
2018-09-27T16:42:37.285Z,98864.94
2018-09-27T16:45:07.658Z,98862.27
2018-09-27T16:47:37.269Z,98859.07
2018-09-27T16:50:07.392Z,98863.03
2018-09-27T16:52:37.168Z,98860.66
2018-09-27T16:55:06.814Z,98862.78
2018-09-27T16:57:36.633Z,98853.88
2018-09-27T17:00:07.219Z,98860.30
2018-09-27T17:02:36.771Z,98855.73
2018-09-27T17:05:06.455Z,98852.02
2018-09-27T17:07:36.009Z,98854.58
2018-09-27T17:10:05.630Z,98852.84
2018-09-27T17:12:35.231Z,98854.73
2018-09-27T17:15:05.295Z,98855.93
2018-09-27T17:17:34.941Z,98858.78
2018-09-27T17:20:04.841Z,98860.48
2018-09-27T17:22:34.989Z,98864.19
2018-09-27T17:25:05.208Z,98859.77
2018-09-27T17:27:34.770Z,98862.28
2018-09-27T17:30:04.750Z,98849.44
2018-09-27T17:32:34.328Z,98852.97
2018-09-27T17:35:04.196Z,98846.55
2018-09-27T17:37:33.958Z,98851.19
2018-09-27T17:40:03.748Z,98848.88
2018-09-27T17:42:33.327Z,98843.06
2018-09-27T17:45:02.977Z,98844.06
2018-09-27T17:47:32.581Z,98843.53
2018-09-27T17:50:02.140Z,98842.98
2018-09-27T17:52:31.738Z,98845.44
2018-09-27T17:55:01.495Z,98845.74
2018-09-27T17:57:31.088Z,98843.75
2018-09-27T18:00:00.722Z,98848.70
2018-09-27T18:02:30.522Z,98855.14
2018-09-27T18:05:00.105Z,98849.03
2018-09-27T18:07:29.745Z,98848.50
2018-09-27T18:09:59.467Z,98842.22
2018-09-27T18:12:29.020Z,98850.42
2018-09-27T18:14:58.593Z,98841.16
2018-09-27T18:17:28.214Z,98857.00
2018-09-27T18:19:57.960Z,98852.79
2018-09-27T18:22:27.582Z,98844.48
2018-09-27T18:24:57.365Z,98848.61
2018-09-27T18:27:26.952Z,98849.41
2018-09-27T18:29:56.519Z,98851.62
2018-09-27T18:32:26.132Z,98849.77
2018-09-27T18:34:55.692Z,98847.45
2018-09-27T18:37:25.614Z,98848.93
2018-09-27T18:39:55.360Z,98848.39
2018-09-27T18:42:25.036Z,98849.90
2018-09-27T18:44:54.607Z,98850.87
2018-09-27T18:47:24.779Z,98851.68
2018-09-27T18:49:54.375Z,98852.06
2018-09-27T18:52:23.923Z,98850.66
2018-09-27T18:54:53.523Z,98856.44
2018-09-27T18:57:23.124Z,98859.96
2018-09-27T18:59:52.710Z,98856.52
2018-09-27T19:02:22.288Z,98859.29
2018-09-27T19:04:51.916Z,98855.71
2018-09-27T19:07:21.539Z,98851.06
2018-09-27T19:09:51.104Z,98845.34
2018-09-27T19:12:20.664Z,98847.28
2018-09-27T19:14:50.260Z,98844.06
2018-09-27T19:17:20.560Z,98842.05
2018-09-27T19:19:50.247Z,98845.66
2018-09-27T19:22:19.844Z,98839.57
2018-09-27T19:24:49.424Z,98844.38
2018-09-27T19:27:19.051Z,98837.79
2018-09-27T19:29:48.728Z,98838.64
2018-09-27T19:32:18.301Z,98844.52
2018-09-27T19:34:47.856Z,98839.33
2018-09-27T19:37:17.432Z,98838.28
2018-09-27T19:39:47.028Z,98840.41
2018-09-27T19:42:16.687Z,98839.83
2018-09-27T19:44:46.276Z,98837.18
2018-09-27T19:47:15.881Z,98831.56
2018-09-27T19:49:45.486Z,98836.49
2018-09-27T19:52:15.076Z,98837.42
2018-09-27T19:54:44.847Z,98840.30
2018-09-27T19:57:14.427Z,98835.14
2018-09-27T19:59:44.052Z,98840.98
2018-09-27T20:02:13.984Z,98839.80
2018-09-27T20:04:43.782Z,98842.64
2018-09-27T20:07:13.415Z,98841.79
2018-09-27T20:09:42.997Z,98836.05
2018-09-27T20:12:12.619Z,98837.94
2018-09-27T20:14:42.180Z,98837.68
2018-09-27T20:17:11.991Z,98844.73
2018-09-27T20:19:41.532Z,98830.86
2018-09-27T20:22:11.885Z,98842.84
2018-09-27T20:24:41.596Z,98842.36
2018-09-27T20:27:11.763Z,98838.50
2018-09-27T20:29:41.397Z,98838.95
2018-09-27T20:32:10.990Z,98838.34
2018-09-27T20:34:40.653Z,98837.37
2018-09-27T20:37:10.375Z,98839.84
2018-09-27T20:39:39.950Z,98838.36
2018-09-27T20:42:09.751Z,98834.01
2018-09-27T20:44:39.359Z,98837.45
2018-09-27T20:47:08.951Z,98834.94
2018-09-27T20:49:38.901Z,98840.63
2018-09-27T20:52:08.468Z,98837.39
2018-09-27T20:54:38.092Z,98837.61
2018-09-27T20:57:08.196Z,98837.34
2018-09-27T20:59:37.768Z,98839.09
2018-09-27T21:02:07.680Z,98839.19
2018-09-27T21:04:37.245Z,98833.77
2018-09-27T21:07:07.182Z,98839.08
2018-09-27T21:09:36.712Z,98834.45
2018-09-27T21:12:06.277Z,98833.11
2018-09-27T21:14:35.817Z,98830.70
2018-09-27T21:17:05.382Z,98821.23
2018-09-27T21:19:34.977Z,98824.78
2018-09-27T21:22:04.558Z,98822.86
2018-09-27T21:24:34.189Z,98822.59
2018-09-27T21:27:03.769Z,98817.94
2018-09-27T21:29:33.358Z,98817.55
2018-09-27T21:32:02.966Z,98817.77
2018-09-27T21:34:32.519Z,98814.36
2018-09-27T21:37:02.171Z,98817.20
2018-09-27T21:39:31.783Z,98817.89
2018-09-27T21:42:01.411Z,98815.95
2018-09-27T21:44:30.953Z,98814.00
2018-09-27T21:47:00.500Z,98816.38
2018-09-27T21:49:30.071Z,98816.69
2018-09-27T21:51:59.632Z,98816.20
2018-09-27T21:54:29.255Z,98812.11
2018-09-27T21:56:58.842Z,98808.97
2018-09-27T21:59:28.378Z,98812.73
2018-09-27T22:01:57.989Z,98810.32
2018-09-27T22:04:27.499Z,98813.14
2018-09-27T22:06:57.059Z,98814.31
2018-09-27T22:09:26.606Z,98809.87
2018-09-27T22:11:56.179Z,98809.69
2018-09-27T22:14:25.777Z,98806.55
2018-09-27T22:16:55.304Z,98798.52
2018-09-27T22:19:24.853Z,98800.52
2018-09-27T22:21:54.811Z,98798.75
2018-09-27T22:24:24.475Z,98804.77
2018-09-27T22:26:54.064Z,98805.08
2018-09-27T22:29:23.671Z,98797.91
2018-09-27T22:31:55.280Z,98796.59
2018-09-27T22:34:24.880Z,98793.97
2018-09-27T22:36:54.551Z,98795.13
2018-09-27T22:39:24.132Z,98795.33
2018-09-27T22:41:53.814Z,98785.41
2018-09-27T22:44:23.430Z,98787.30
2018-09-27T22:46:53.141Z,98786.57
2018-09-27T22:49:22.692Z,98783.05
2018-09-27T22:51:52.231Z,98785.09
2018-09-27T22:54:21.825Z,98781.57
2018-09-27T22:56:51.513Z,98787.38
2018-09-27T22:59:21.076Z,98792.71
2018-09-27T23:01:50.615Z,98787.58
2018-09-27T23:04:20.151Z,98779.73
2018-09-27T23:06:49.685Z,98780.31
2018-09-27T23:09:19.237Z,98779.67
2018-09-27T23:11:48.936Z,98772.57
2018-09-27T23:14:18.464Z,98777.45
2018-09-27T23:16:48.035Z,98774.08
2018-09-27T23:19:17.578Z,98776.44
2018-09-27T23:21:47.088Z,98773.16
2018-09-27T23:24:16.996Z,98776.83
2018-09-27T23:26:46.528Z,98771.50
2018-09-27T23:29:16.095Z,98770.48
2018-09-27T23:31:45.644Z,98774.13
2018-09-27T23:34:15.227Z,98772.91
2018-09-27T23:36:44.791Z,98769.56
2018-09-27T23:39:14.294Z,98767.98
2018-09-27T23:41:43.868Z,98772.09
2018-09-27T23:44:13.415Z,98762.21
2018-09-27T23:46:42.966Z,98764.54
2018-09-27T23:49:12.509Z,98769.42
2018-09-27T23:51:42.149Z,98766.61
2018-09-27T23:54:11.711Z,98762.98
2018-09-27T23:56:41.280Z,98762.89
2018-09-27T23:59:10.841Z,98761.77
